sensor_id;sensor_type;location;lat;lon;timestamp;P1;durP1;ratioP1;P2;durP2;ratioP2
74371;SDS011;62885;51.374;6.170;2023-06-26T00:01:30;9.30;;;7.10;;
74371;SDS011;62885;51.374;6.170;2023-06-26T00:03:56;8.77;;;6.80;;
74371;SDS011;62885;51.374;6.170;2023-06-26T00:06:22;9.02;;;6.72;;
74371;SDS011;62885;51.374;6.170;2023-06-26T00:08:51;11.23;;;6.57;;
74371;SDS011;62885;51.374;6.170;2023-06-26T00:11:18;9.38;;;7.28;;
74371;SDS011;62885;51.374;6.170;2023-06-26T00:13:43;10.35;;;6.93;;
74371;SDS011;62885;51.374;6.170;2023-06-26T00:16:09;9.70;;;7.28;;
74371;SDS011;62885;51.374;6.170;2023-06-26T00:18:34;9.95;;;6.68;;
74371;SDS011;62885;51.374;6.170;2023-06-26T00:21:00;9.27;;;6.97;;
74371;SDS011;62885;51.374;6.170;2023-06-26T00:23:25;11.10;;;7.60;;
74371;SDS011;62885;51.374;6.170;2023-06-26T00:25:52;9.65;;;7.70;;
74371;SDS011;62885;51.374;6.170;2023-06-26T00:28:18;9.18;;;6.97;;
74371;SDS011;62885;51.374;6.170;2023-06-26T00:30:43;10.52;;;7.10;;
74371;SDS011;62885;51.374;6.170;2023-06-26T00:33:08;9.10;;;7.10;;
74371;SDS011;62885;51.374;6.170;2023-06-26T00:35:34;8.90;;;7.30;;
74371;SDS011;62885;51.374;6.170;2023-06-26T00:38:00;9.50;;;7.25;;
74371;SDS011;62885;51.374;6.170;2023-06-26T00:40:26;11.05;;;7.80;;
74371;SDS011;62885;51.374;6.170;2023-06-26T00:42:51;9.43;;;6.90;;
74371;SDS011;62885;51.374;6.170;2023-06-26T00:45:17;10.00;;;7.10;;
74371;SDS011;62885;51.374;6.170;2023-06-26T00:47:42;10.38;;;6.50;;
74371;SDS011;62885;51.374;6.170;2023-06-26T00:50:08;9.43;;;6.78;;
74371;SDS011;62885;51.374;6.170;2023-06-26T00:52:34;9.27;;;7.38;;
74371;SDS011;62885;51.374;6.170;2023-06-26T00:54:59;11.30;;;7.78;;
74371;SDS011;62885;51.374;6.170;2023-06-26T00:57:25;10.23;;;6.82;;
74371;SDS011;62885;51.374;6.170;2023-06-26T00:59:50;9.32;;;6.68;;
74371;SDS011;62885;51.374;6.170;2023-06-26T01:02:16;9.60;;;7.40;;
74371;SDS011;62885;51.374;6.170;2023-06-26T01:04:42;12.30;;;6.57;;
74371;SDS011;62885;51.374;6.170;2023-06-26T01:07:11;9.90;;;6.82;;
74371;SDS011;62885;51.374;6.170;2023-06-26T01:09:38;11.00;;;6.75;;
74371;SDS011;62885;51.374;6.170;2023-06-26T01:12:03;9.05;;;6.53;;
74371;SDS011;62885;51.374;6.170;2023-06-26T01:14:29;11.05;;;7.15;;
74371;SDS011;62885;51.374;6.170;2023-06-26T01:16:54;9.02;;;6.50;;
74371;SDS011;62885;51.374;6.170;2023-06-26T01:19:26;9.82;;;6.53;;
74371;SDS011;62885;51.374;6.170;2023-06-26T01:21:56;8.77;;;5.93;;
74371;SDS011;62885;51.374;6.170;2023-06-26T01:24:31;9.27;;;6.45;;
74371;SDS011;62885;51.374;6.170;2023-06-26T01:26:58;8.38;;;6.50;;
74371;SDS011;62885;51.374;6.170;2023-06-26T01:29:26;8.90;;;6.05;;
74371;SDS011;62885;51.374;6.170;2023-06-26T01:31:53;9.70;;;6.45;;
74371;SDS011;62885;51.374;6.170;2023-06-26T01:34:19;10.93;;;6.50;;
74371;SDS011;62885;51.374;6.170;2023-06-26T01:36:45;10.38;;;6.78;;
74371;SDS011;62885;51.374;6.170;2023-06-26T01:39:13;9.73;;;6.72;;
74371;SDS011;62885;51.374;6.170;2023-06-26T01:41:41;9.18;;;7.25;;
74371;SDS011;62885;51.374;6.170;2023-06-26T01:54:28;10.40;;;7.25;;
74371;SDS011;62885;51.374;6.170;2023-06-26T01:56:58;10.38;;;8.32;;
74371;SDS011;62885;51.374;6.170;2023-06-26T01:59:24;10.10;;;7.75;;
74371;SDS011;62885;51.374;6.170;2023-06-26T02:01:53;9.65;;;8.00;;
74371;SDS011;62885;51.374;6.170;2023-06-26T02:04:19;10.52;;;7.45;;
74371;SDS011;62885;51.374;6.170;2023-06-26T02:06:44;11.75;;;7.43;;
74371;SDS011;62885;51.374;6.170;2023-06-26T02:09:10;11.68;;;7.55;;
74371;SDS011;62885;51.374;6.170;2023-06-26T02:11:35;11.02;;;7.65;;
74371;SDS011;62885;51.374;6.170;2023-06-26T02:14:00;9.40;;;6.78;;
74371;SDS011;62885;51.374;6.170;2023-06-26T02:16:26;11.25;;;6.82;;
74371;SDS011;62885;51.374;6.170;2023-06-26T02:18:51;9.87;;;6.90;;
74371;SDS011;62885;51.374;6.170;2023-06-26T02:21:17;11.32;;;7.28;;
74371;SDS011;62885;51.374;6.170;2023-06-26T02:23:42;8.90;;;6.45;;
74371;SDS011;62885;51.374;6.170;2023-06-26T02:26:07;8.65;;;6.03;;
74371;SDS011;62885;51.374;6.170;2023-06-26T02:28:33;9.48;;;6.00;;
74371;SDS011;62885;51.374;6.170;2023-06-26T02:30:59;9.07;;;6.00;;
74371;SDS011;62885;51.374;6.170;2023-06-26T02:33:25;8.75;;;6.00;;
74371;SDS011;62885;51.374;6.170;2023-06-26T02:35:51;9.20;;;6.10;;
74371;SDS011;62885;51.374;6.170;2023-06-26T02:38:16;8.15;;;5.38;;
74371;SDS011;62885;51.374;6.170;2023-06-26T02:40:42;9.23;;;6.03;;
74371;SDS011;62885;51.374;6.170;2023-06-26T02:43:07;10.30;;;5.30;;
74371;SDS011;62885;51.374;6.170;2023-06-26T02:45:33;9.85;;;6.13;;
74371;SDS011;62885;51.374;6.170;2023-06-26T02:47:58;8.43;;;5.72;;
74371;SDS011;62885;51.374;6.170;2023-06-26T02:50:23;9.30;;;5.72;;
74371;SDS011;62885;51.374;6.170;2023-06-26T02:52:49;8.75;;;4.85;;
74371;SDS011;62885;51.374;6.170;2023-06-26T02:55:17;8.73;;;5.50;;
74371;SDS011;62885;51.374;6.170;2023-06-26T02:57:44;10.40;;;5.82;;
74371;SDS011;62885;51.374;6.170;2023-06-26T03:00:09;9.00;;;5.10;;
74371;SDS011;62885;51.374;6.170;2023-06-26T03:02:36;9.35;;;5.82;;
74371;SDS011;62885;51.374;6.170;2023-06-26T03:05:02;8.57;;;5.40;;
74371;SDS011;62885;51.374;6.170;2023-06-26T03:07:28;8.60;;;5.68;;
74371;SDS011;62885;51.374;6.170;2023-06-26T03:09:53;8.52;;;5.82;;
74371;SDS011;62885;51.374;6.170;2023-06-26T03:12:18;10.23;;;6.25;;
74371;SDS011;62885;51.374;6.170;2023-06-26T03:14:44;8.40;;;5.55;;
74371;SDS011;62885;51.374;6.170;2023-06-26T03:17:09;8.85;;;5.78;;
74371;SDS011;62885;51.374;6.170;2023-06-26T03:19:34;9.43;;;5.63;;
74371;SDS011;62885;51.374;6.170;2023-06-26T03:22:00;9.18;;;5.93;;
74371;SDS011;62885;51.374;6.170;2023-06-26T03:24:25;12.25;;;6.18;;
74371;SDS011;62885;51.374;6.170;2023-06-26T03:26:50;10.77;;;5.30;;
74371;SDS011;62885;51.374;6.170;2023-06-26T03:29:16;10.27;;;5.85;;
74371;SDS011;62885;51.374;6.170;2023-06-26T03:31:42;12.48;;;5.88;;
74371;SDS011;62885;51.374;6.170;2023-06-26T03:34:07;8.88;;;5.18;;
74371;SDS011;62885;51.374;6.170;2023-06-26T03:36:33;9.85;;;5.65;;
74371;SDS011;62885;51.374;6.170;2023-06-26T03:38:58;9.88;;;6.25;;
74371;SDS011;62885;51.374;6.170;2023-06-26T03:41:25;8.60;;;5.32;;
74371;SDS011;62885;51.374;6.170;2023-06-26T03:43:50;7.72;;;5.07;;
74371;SDS011;62885;51.374;6.170;2023-06-26T03:46:16;12.10;;;5.65;;
74371;SDS011;62885;51.374;6.170;2023-06-26T03:48:41;8.95;;;5.15;;
74371;SDS011;62885;51.374;6.170;2023-06-26T03:51:06;7.97;;;4.70;;
74371;SDS011;62885;51.374;6.170;2023-06-26T03:53:32;7.82;;;4.63;;
74371;SDS011;62885;51.374;6.170;2023-06-26T03:55:59;7.10;;;4.35;;
74371;SDS011;62885;51.374;6.170;2023-06-26T03:58:24;9.75;;;4.40;;
74371;SDS011;62885;51.374;6.170;2023-06-26T04:00:50;9.75;;;4.28;;
74371;SDS011;62885;51.374;6.170;2023-06-26T04:03:16;8.35;;;4.07;;
74371;SDS011;62885;51.374;6.170;2023-06-26T04:05:41;7.63;;;4.28;;
74371;SDS011;62885;51.374;6.170;2023-06-26T04:08:07;7.03;;;3.88;;
74371;SDS011;62885;51.374;6.170;2023-06-26T04:10:33;8.23;;;3.83;;
74371;SDS011;62885;51.374;6.170;2023-06-26T04:12:58;7.70;;;3.75;;
74371;SDS011;62885;51.374;6.170;2023-06-26T04:15:23;7.80;;;3.88;;
74371;SDS011;62885;51.374;6.170;2023-06-26T04:17:49;7.03;;;3.67;;
74371;SDS011;62885;51.374;6.170;2023-06-26T04:20:14;8.00;;;3.90;;
74371;SDS011;62885;51.374;6.170;2023-06-26T04:22:40;9.88;;;4.22;;
74371;SDS011;62885;51.374;6.170;2023-06-26T04:25:05;9.05;;;3.40;;
74371;SDS011;62885;51.374;6.170;2023-06-26T04:27:31;10.15;;;3.67;;
74371;SDS011;62885;51.374;6.170;2023-06-26T04:29:56;11.45;;;4.50;;
74371;SDS011;62885;51.374;6.170;2023-06-26T04:32:21;7.05;;;3.25;;
74371;SDS011;62885;51.374;6.170;2023-06-26T04:34:47;6.78;;;3.53;;
74371;SDS011;62885;51.374;6.170;2023-06-26T04:37:13;6.35;;;3.53;;
74371;SDS011;62885;51.374;6.170;2023-06-26T04:39:41;7.00;;;4.10;;
74371;SDS011;62885;51.374;6.170;2023-06-26T04:42:06;9.75;;;4.30;;
74371;SDS011;62885;51.374;6.170;2023-06-26T04:44:32;9.60;;;3.40;;
74371;SDS011;62885;51.374;6.170;2023-06-26T04:46:58;8.70;;;3.90;;
74371;SDS011;62885;51.374;6.170;2023-06-26T04:49:23;10.70;;;5.80;;
74371;SDS011;62885;51.374;6.170;2023-06-26T04:51:49;10.50;;;4.15;;
74371;SDS011;62885;51.374;6.170;2023-06-26T04:54:15;8.93;;;3.70;;
74371;SDS011;62885;51.374;6.170;2023-06-26T04:56:41;7.38;;;3.75;;
74371;SDS011;62885;51.374;6.170;2023-06-26T04:59:08;8.82;;;3.90;;
74371;SDS011;62885;51.374;6.170;2023-06-26T05:01:38;9.23;;;3.67;;
74371;SDS011;62885;51.374;6.170;2023-06-26T05:04:04;8.18;;;3.80;;
74371;SDS011;62885;51.374;6.170;2023-06-26T05:06:30;10.20;;;4.05;;
74371;SDS011;62885;51.374;6.170;2023-06-26T05:08:55;8.55;;;4.07;;
74371;SDS011;62885;51.374;6.170;2023-06-26T05:11:21;8.07;;;3.40;;
74371;SDS011;62885;51.374;6.170;2023-06-26T05:13:46;7.55;;;3.35;;
74371;SDS011;62885;51.374;6.170;2023-06-26T05:16:12;12.57;;;4.03;;
74371;SDS011;62885;51.374;6.170;2023-06-26T05:18:37;7.28;;;3.58;;
74371;SDS011;62885;51.374;6.170;2023-06-26T05:21:03;8.63;;;3.88;;
74371;SDS011;62885;51.374;6.170;2023-06-26T05:23:32;7.32;;;3.50;;
74371;SDS011;62885;51.374;6.170;2023-06-26T05:25:59;8.50;;;3.60;;
74371;SDS011;62885;51.374;6.170;2023-06-26T05:28:28;8.25;;;3.92;;
74371;SDS011;62885;51.374;6.170;2023-06-26T05:30:56;9.88;;;3.80;;
74371;SDS011;62885;51.374;6.170;2023-06-26T05:33:23;9.25;;;3.83;;
74371;SDS011;62885;51.374;6.170;2023-06-26T05:35:50;9.45;;;3.95;;
74371;SDS011;62885;51.374;6.170;2023-06-26T05:38:17;9.88;;;3.67;;
74371;SDS011;62885;51.374;6.170;2023-06-26T05:40:43;8.50;;;3.55;;
74371;SDS011;62885;51.374;6.170;2023-06-26T05:43:08;12.23;;;4.05;;
74371;SDS011;62885;51.374;6.170;2023-06-26T05:45:34;11.85;;;4.10;;
74371;SDS011;62885;51.374;6.170;2023-06-26T05:47:59;9.80;;;4.38;;
74371;SDS011;62885;51.374;6.170;2023-06-26T05:50:25;12.38;;;4.00;;
74371;SDS011;62885;51.374;6.170;2023-06-26T05:52:52;8.05;;;3.50;;
74371;SDS011;62885;51.374;6.170;2023-06-26T05:55:18;10.13;;;4.15;;
74371;SDS011;62885;51.374;6.170;2023-06-26T05:57:43;13.05;;;4.88;;
74371;SDS011;62885;51.374;6.170;2023-06-26T06:00:11;8.18;;;3.65;;
74371;SDS011;62885;51.374;6.170;2023-06-26T06:02:37;7.63;;;3.28;;
74371;SDS011;62885;51.374;6.170;2023-06-26T06:05:03;8.68;;;3.50;;
74371;SDS011;62885;51.374;6.170;2023-06-26T06:07:29;9.82;;;3.10;;
74371;SDS011;62885;51.374;6.170;2023-06-26T06:09:54;12.18;;;3.90;;
74371;SDS011;62885;51.374;6.170;2023-06-26T06:12:20;10.20;;;3.92;;
74371;SDS011;62885;51.374;6.170;2023-06-26T06:14:45;11.63;;;3.78;;
74371;SDS011;62885;51.374;6.170;2023-06-26T06:17:11;12.52;;;4.00;;
74371;SDS011;62885;51.374;6.170;2023-06-26T06:19:36;10.38;;;5.28;;
74371;SDS011;62885;51.374;6.170;2023-06-26T06:22:02;15.43;;;5.15;;
74371;SDS011;62885;51.374;6.170;2023-06-26T06:24:31;8.98;;;3.35;;
74371;SDS011;62885;51.374;6.170;2023-06-26T06:26:56;12.82;;;3.67;;
74371;SDS011;62885;51.374;6.170;2023-06-26T06:29:22;11.43;;;4.07;;
74371;SDS011;62885;51.374;6.170;2023-06-26T06:31:50;10.63;;;3.53;;
74371;SDS011;62885;51.374;6.170;2023-06-26T06:34:16;11.50;;;4.90;;
74371;SDS011;62885;51.374;6.170;2023-06-26T06:36:48;9.90;;;3.72;;
74371;SDS011;62885;51.374;6.170;2023-06-26T06:39:15;10.18;;;3.13;;
74371;SDS011;62885;51.374;6.170;2023-06-26T06:41:41;9.68;;;3.72;;
74371;SDS011;62885;51.374;6.170;2023-06-26T06:44:08;11.63;;;3.80;;
74371;SDS011;62885;51.374;6.170;2023-06-26T06:46:34;10.15;;;4.53;;
74371;SDS011;62885;51.374;6.170;2023-06-26T06:49:00;10.95;;;3.53;;
74371;SDS011;62885;51.374;6.170;2023-06-26T06:51:26;10.82;;;3.22;;
74371;SDS011;62885;51.374;6.170;2023-06-26T06:53:52;10.27;;;3.10;;
74371;SDS011;62885;51.374;6.170;2023-06-26T06:56:18;13.18;;;3.72;;
74371;SDS011;62885;51.374;6.170;2023-06-26T06:58:43;8.68;;;3.05;;
74371;SDS011;62885;51.374;6.170;2023-06-26T07:01:11;10.95;;;3.47;;
74371;SDS011;62885;51.374;6.170;2023-06-26T07:03:37;10.02;;;3.38;;
74371;SDS011;62885;51.374;6.170;2023-06-26T07:06:02;14.35;;;4.38;;
74371;SDS011;62885;51.374;6.170;2023-06-26T07:08:30;9.75;;;3.17;;
74371;SDS011;62885;51.374;6.170;2023-06-26T07:10:56;10.63;;;3.20;;
74371;SDS011;62885;51.374;6.170;2023-06-26T07:13:25;9.48;;;3.25;;
74371;SDS011;62885;51.374;6.170;2023-06-26T07:15:50;13.15;;;3.30;;
74371;SDS011;62885;51.374;6.170;2023-06-26T07:18:15;11.82;;;3.22;;
74371;SDS011;62885;51.374;6.170;2023-06-26T07:20:41;9.95;;;2.55;;
74371;SDS011;62885;51.374;6.170;2023-06-26T07:23:07;10.32;;;3.03;;
74371;SDS011;62885;51.374;6.170;2023-06-26T07:25:32;10.90;;;2.67;;
74371;SDS011;62885;51.374;6.170;2023-06-26T07:27:58;8.73;;;2.85;;
74371;SDS011;62885;51.374;6.170;2023-06-26T07:30:23;10.25;;;3.20;;
74371;SDS011;62885;51.374;6.170;2023-06-26T07:32:52;10.52;;;3.08;;
74371;SDS011;62885;51.374;6.170;2023-06-26T07:35:17;8.32;;;2.70;;
74371;SDS011;62885;51.374;6.170;2023-06-26T07:37:42;6.05;;;2.63;;
74371;SDS011;62885;51.374;6.170;2023-06-26T07:40:08;8.93;;;2.85;;
74371;SDS011;62885;51.374;6.170;2023-06-26T07:42:34;7.20;;;3.00;;
74371;SDS011;62885;51.374;6.170;2023-06-26T07:45:00;7.55;;;2.50;;
74371;SDS011;62885;51.374;6.170;2023-06-26T07:47:25;8.73;;;2.80;;
74371;SDS011;62885;51.374;6.170;2023-06-26T07:49:50;9.07;;;2.60;;
74371;SDS011;62885;51.374;6.170;2023-06-26T07:52:17;8.90;;;2.70;;
74371;SDS011;62885;51.374;6.170;2023-06-26T07:54:43;10.43;;;3.03;;
74371;SDS011;62885;51.374;6.170;2023-06-26T07:57:09;8.60;;;2.95;;
74371;SDS011;62885;51.374;6.170;2023-06-26T07:59:36;9.32;;;2.65;;
74371;SDS011;62885;51.374;6.170;2023-06-26T08:02:01;7.80;;;3.03;;
74371;SDS011;62885;51.374;6.170;2023-06-26T08:04:27;9.43;;;2.83;;
74371;SDS011;62885;51.374;6.170;2023-06-26T08:06:57;8.73;;;2.90;;
74371;SDS011;62885;51.374;6.170;2023-06-26T08:09:24;9.77;;;2.78;;
74371;SDS011;62885;51.374;6.170;2023-06-26T08:11:51;10.45;;;2.50;;
74371;SDS011;62885;51.374;6.170;2023-06-26T08:14:16;13.18;;;3.13;;
74371;SDS011;62885;51.374;6.170;2023-06-26T08:16:42;6.20;;;2.35;;
74371;SDS011;62885;51.374;6.170;2023-06-26T08:19:09;8.60;;;2.53;;
74371;SDS011;62885;51.374;6.170;2023-06-26T08:21:37;6.75;;;2.78;;
74371;SDS011;62885;51.374;6.170;2023-06-26T08:24:02;10.27;;;3.35;;
74371;SDS011;62885;51.374;6.170;2023-06-26T08:26:27;7.50;;;3.00;;
74371;SDS011;62885;51.374;6.170;2023-06-26T08:28:53;9.45;;;2.83;;
74371;SDS011;62885;51.374;6.170;2023-06-26T08:31:18;11.00;;;3.85;;
74371;SDS011;62885;51.374;6.170;2023-06-26T08:33:44;8.95;;;3.00;;
74371;SDS011;62885;51.374;6.170;2023-06-26T08:36:09;13.40;;;2.92;;
74371;SDS011;62885;51.374;6.170;2023-06-26T08:38:35;7.07;;;2.65;;
74371;SDS011;62885;51.374;6.170;2023-06-26T08:41:00;7.05;;;2.67;;
74371;SDS011;62885;51.374;6.170;2023-06-26T08:43:26;13.07;;;3.22;;
74371;SDS011;62885;51.374;6.170;2023-06-26T08:45:53;10.50;;;3.83;;
74371;SDS011;62885;51.374;6.170;2023-06-26T08:48:18;7.68;;;2.42;;
74371;SDS011;62885;51.374;6.170;2023-06-26T08:50:46;10.07;;;2.72;;
74371;SDS011;62885;51.374;6.170;2023-06-26T08:55:49;6.78;;;2.47;;
74371;SDS011;62885;51.374;6.170;2023-06-26T08:58:18;7.18;;;2.75;;
74371;SDS011;62885;51.374;6.170;2023-06-26T09:00:43;9.40;;;2.72;;
74371;SDS011;62885;51.374;6.170;2023-06-26T09:03:09;7.25;;;2.63;;
74371;SDS011;62885;51.374;6.170;2023-06-26T09:05:34;9.10;;;2.75;;
74371;SDS011;62885;51.374;6.170;2023-06-26T09:08:01;8.98;;;3.00;;
74371;SDS011;62885;51.374;6.170;2023-06-26T09:10:27;6.85;;;2.47;;
74371;SDS011;62885;51.374;6.170;2023-06-26T09:12:54;13.07;;;3.00;;
74371;SDS011;62885;51.374;6.170;2023-06-26T09:15:21;8.80;;;3.58;;
74371;SDS011;62885;51.374;6.170;2023-06-26T09:17:47;10.40;;;3.03;;
74371;SDS011;62885;51.374;6.170;2023-06-26T09:20:13;6.18;;;2.58;;
74371;SDS011;62885;51.374;6.170;2023-06-26T09:22:40;7.43;;;2.95;;
74371;SDS011;62885;51.374;6.170;2023-06-26T09:25:07;6.95;;;2.67;;
74371;SDS011;62885;51.374;6.170;2023-06-26T09:27:34;6.70;;;2.28;;
74371;SDS011;62885;51.374;6.170;2023-06-26T09:30:01;6.25;;;2.28;;
74371;SDS011;62885;51.374;6.170;2023-06-26T09:32:28;4.05;;;2.00;;
74371;SDS011;62885;51.374;6.170;2023-06-26T09:34:54;8.40;;;2.50;;
74371;SDS011;62885;51.374;6.170;2023-06-26T09:37:22;6.47;;;2.30;;
74371;SDS011;62885;51.374;6.170;2023-06-26T09:39:48;10.70;;;2.42;;
74371;SDS011;62885;51.374;6.170;2023-06-26T09:42:14;7.55;;;2.42;;
74371;SDS011;62885;51.374;6.170;2023-06-26T09:44:46;10.52;;;2.08;;
74371;SDS011;62885;51.374;6.170;2023-06-26T09:47:12;5.10;;;2.03;;
74371;SDS011;62885;51.374;6.170;2023-06-26T09:49:42;5.38;;;2.40;;
74371;SDS011;62885;51.374;6.170;2023-06-26T09:52:08;4.75;;;1.85;;
74371;SDS011;62885;51.374;6.170;2023-06-26T09:54:34;5.38;;;1.55;;
74371;SDS011;62885;51.374;6.170;2023-06-26T09:57:06;5.22;;;2.10;;
74371;SDS011;62885;51.374;6.170;2023-06-26T09:59:35;5.55;;;1.83;;
74371;SDS011;62885;51.374;6.170;2023-06-26T10:02:01;4.35;;;1.70;;
74371;SDS011;62885;51.374;6.170;2023-06-26T10:04:27;4.70;;;1.48;;
74371;SDS011;62885;51.374;6.170;2023-06-26T10:06:53;3.22;;;1.40;;
74371;SDS011;62885;51.374;6.170;2023-06-26T10:09:21;3.65;;;1.40;;
74371;SDS011;62885;51.374;6.170;2023-06-26T10:11:55;4.03;;;1.70;;
74371;SDS011;62885;51.374;6.170;2023-06-26T10:14:23;6.25;;;1.85;;
74371;SDS011;62885;51.374;6.170;2023-06-26T10:16:51;6.80;;;1.60;;
74371;SDS011;62885;51.374;6.170;2023-06-26T10:19:18;6.28;;;1.60;;
74371;SDS011;62885;51.374;6.170;2023-06-26T10:21:49;3.95;;;1.40;;
74371;SDS011;62885;51.374;6.170;2023-06-26T10:24:16;4.32;;;1.40;;
74371;SDS011;62885;51.374;6.170;2023-06-26T10:26:44;5.25;;;1.42;;
74371;SDS011;62885;51.374;6.170;2023-06-26T10:29:11;3.58;;;1.35;;
74371;SDS011;62885;51.374;6.170;2023-06-26T10:31:40;3.45;;;1.30;;
74371;SDS011;62885;51.374;6.170;2023-06-26T10:34:10;6.07;;;1.20;;
74371;SDS011;62885;51.374;6.170;2023-06-26T10:36:36;4.72;;;1.05;;
74371;SDS011;62885;51.374;6.170;2023-06-26T10:39:03;3.22;;;1.25;;
74371;SDS011;62885;51.374;6.170;2023-06-26T10:41:39;2.97;;;1.23;;
74371;SDS011;62885;51.374;6.170;2023-06-26T10:44:09;3.22;;;1.45;;
74371;SDS011;62885;51.374;6.170;2023-06-26T10:46:55;3.58;;;1.50;;
74371;SDS011;62885;51.374;6.170;2023-06-26T10:49:27;3.88;;;1.60;;
74371;SDS011;62885;51.374;6.170;2023-06-26T10:51:54;4.65;;;1.50;;
74371;SDS011;62885;51.374;6.170;2023-06-26T10:54:23;2.10;;;0.90;;
74371;SDS011;62885;51.374;6.170;2023-06-26T10:56:54;5.13;;;1.38;;
74371;SDS011;62885;51.374;6.170;2023-06-26T10:59:26;4.18;;;1.00;;
74371;SDS011;62885;51.374;6.170;2023-06-26T11:01:57;4.78;;;1.10;;
74371;SDS011;62885;51.374;6.170;2023-06-26T11:04:38;3.40;;;1.15;;
74371;SDS011;62885;51.374;6.170;2023-06-26T11:07:19;2.67;;;1.08;;
74371;SDS011;62885;51.374;6.170;2023-06-26T11:10:08;4.82;;;1.00;;
74371;SDS011;62885;51.374;6.170;2023-06-26T11:15:03;4.45;;;1.30;;
74371;SDS011;62885;51.374;6.170;2023-06-26T11:17:38;2.20;;;1.10;;
74371;SDS011;62885;51.374;6.170;2023-06-26T11:20:08;2.80;;;1.00;;
74371;SDS011;62885;51.374;6.170;2023-06-26T11:22:36;0.93;;;0.60;;
74371;SDS011;62885;51.374;6.170;2023-06-26T11:25:02;3.08;;;1.00;;
74371;SDS011;62885;51.374;6.170;2023-06-26T11:27:41;3.03;;;1.00;;
74371;SDS011;62885;51.374;6.170;2023-06-26T11:30:08;2.63;;;1.15;;
74371;SDS011;62885;51.374;6.170;2023-06-26T11:32:36;3.42;;;0.95;;
74371;SDS011;62885;51.374;6.170;2023-06-26T11:35:02;5.38;;;0.98;;
74371;SDS011;62885;51.374;6.170;2023-06-26T11:37:29;2.00;;;1.00;;
74371;SDS011;62885;51.374;6.170;2023-06-26T11:39:55;0.90;;;0.70;;
74371;SDS011;62885;51.374;6.170;2023-06-26T11:42:20;3.95;;;1.00;;
74371;SDS011;62885;51.374;6.170;2023-06-26T11:44:46;3.00;;;1.02;;
74371;SDS011;62885;51.374;6.170;2023-06-26T11:47:12;4.82;;;1.50;;
74371;SDS011;62885;51.374;6.170;2023-06-26T11:49:42;3.42;;;0.80;;
74371;SDS011;62885;51.374;6.170;2023-06-26T11:52:09;3.13;;;0.90;;
74371;SDS011;62885;51.374;6.170;2023-06-26T11:54:34;2.80;;;1.00;;
74371;SDS011;62885;51.374;6.170;2023-06-26T11:56:59;2.50;;;1.10;;
74371;SDS011;62885;51.374;6.170;2023-06-26T11:59:36;3.83;;;1.13;;
74371;SDS011;62885;51.374;6.170;2023-06-26T12:02:06;2.80;;;0.90;;
74371;SDS011;62885;51.374;6.170;2023-06-26T12:04:36;3.95;;;0.90;;
74371;SDS011;62885;51.374;6.170;2023-06-26T12:07:04;3.00;;;1.10;;
74371;SDS011;62885;51.374;6.170;2023-06-26T12:09:32;3.45;;;0.90;;
74371;SDS011;62885;51.374;6.170;2023-06-26T12:12:00;3.50;;;0.82;;
74371;SDS011;62885;51.374;6.170;2023-06-26T12:14:26;1.85;;;0.82;;
74371;SDS011;62885;51.374;6.170;2023-06-26T12:16:54;3.20;;;0.98;;
74371;SDS011;62885;51.374;6.170;2023-06-26T12:19:26;3.75;;;0.98;;
74371;SDS011;62885;51.374;6.170;2023-06-26T12:21:52;2.80;;;1.00;;
74371;SDS011;62885;51.374;6.170;2023-06-26T12:24:20;2.63;;;1.13;;
74371;SDS011;62885;51.374;6.170;2023-06-26T12:26:48;2.33;;;0.90;;
74371;SDS011;62885;51.374;6.170;2023-06-26T12:29:19;2.72;;;0.90;;
74371;SDS011;62885;51.374;6.170;2023-06-26T12:31:49;5.47;;;0.95;;
74371;SDS011;62885;51.374;6.170;2023-06-26T12:34:25;6.10;;;0.80;;
74371;SDS011;62885;51.374;6.170;2023-06-26T12:37:00;7.10;;;1.00;;
74371;SDS011;62885;51.374;6.170;2023-06-26T12:39:30;4.57;;;1.00;;
74371;SDS011;62885;51.374;6.170;2023-06-26T12:42:14;3.60;;;1.25;;
74371;SDS011;62885;51.374;6.170;2023-06-26T12:44:41;4.25;;;1.27;;
74371;SDS011;62885;51.374;6.170;2023-06-26T12:47:06;2.75;;;0.85;;
74371;SDS011;62885;51.374;6.170;2023-06-26T12:49:39;3.08;;;0.88;;
74371;SDS011;62885;51.374;6.170;2023-06-26T12:52:15;3.38;;;0.90;;
74371;SDS011;62885;51.374;6.170;2023-06-26T12:54:43;3.00;;;1.10;;
74371;SDS011;62885;51.374;6.170;2023-06-26T12:57:09;4.50;;;1.15;;
74371;SDS011;62885;51.374;6.170;2023-06-26T12:59:38;5.43;;;1.10;;
74371;SDS011;62885;51.374;6.170;2023-06-26T13:02:04;2.65;;;1.02;;
74371;SDS011;62885;51.374;6.170;2023-06-26T13:04:30;6.75;;;1.13;;
74371;SDS011;62885;51.374;6.170;2023-06-26T13:06:56;3.42;;;1.13;;
74371;SDS011;62885;51.374;6.170;2023-06-26T13:09:24;4.28;;;1.10;;
74371;SDS011;62885;51.374;6.170;2023-06-26T13:11:53;6.88;;;1.27;;
74371;SDS011;62885;51.374;6.170;2023-06-26T13:14:19;3.60;;;1.10;;
74371;SDS011;62885;51.374;6.170;2023-06-26T13:16:45;4.90;;;1.42;;
74371;SDS011;62885;51.374;6.170;2023-06-26T13:19:12;2.83;;;0.90;;
74371;SDS011;62885;51.374;6.170;2023-06-26T13:21:38;5.95;;;1.13;;
74371;SDS011;62885;51.374;6.170;2023-06-26T13:24:03;3.17;;;0.90;;
74371;SDS011;62885;51.374;6.170;2023-06-26T13:26:29;3.95;;;1.17;;
74371;SDS011;62885;51.374;6.170;2023-06-26T13:28:55;3.42;;;1.40;;
74371;SDS011;62885;51.374;6.170;2023-06-26T13:31:21;5.25;;;0.90;;
74371;SDS011;62885;51.374;6.170;2023-06-26T13:33:47;4.13;;;1.15;;
74371;SDS011;62885;51.374;6.170;2023-06-26T13:36:17;2.88;;;1.10;;
74371;SDS011;62885;51.374;6.170;2023-06-26T13:38:42;6.05;;;1.27;;
74371;SDS011;62885;51.374;6.170;2023-06-26T13:41:08;4.18;;;1.20;;
74371;SDS011;62885;51.374;6.170;2023-06-26T13:43:33;4.80;;;1.20;;
74371;SDS011;62885;51.374;6.170;2023-06-26T13:45:59;2.42;;;1.08;;
74371;SDS011;62885;51.374;6.170;2023-06-26T13:48:25;2.60;;;1.05;;
74371;SDS011;62885;51.374;6.170;2023-06-26T13:50:51;4.68;;;1.25;;
74371;SDS011;62885;51.374;6.170;2023-06-26T13:53:17;4.38;;;1.40;;
74371;SDS011;62885;51.374;6.170;2023-06-26T13:55:42;3.08;;;1.13;;
74371;SDS011;62885;51.374;6.170;2023-06-26T13:58:08;4.72;;;1.10;;
74371;SDS011;62885;51.374;6.170;2023-06-26T14:00:34;3.28;;;1.02;;
74371;SDS011;62885;51.374;6.170;2023-06-26T14:03:00;1.75;;;1.30;;
74371;SDS011;62885;51.374;6.170;2023-06-26T14:05:28;3.20;;;1.00;;
74371;SDS011;62885;51.374;6.170;2023-06-26T14:07:53;4.25;;;1.00;;
74371;SDS011;62885;51.374;6.170;2023-06-26T14:10:19;3.38;;;1.08;;
74371;SDS011;62885;51.374;6.170;2023-06-26T14:12:45;2.90;;;1.25;;
74371;SDS011;62885;51.374;6.170;2023-06-26T14:15:11;1.98;;;1.00;;
74371;SDS011;62885;51.374;6.170;2023-06-26T14:17:36;5.57;;;1.15;;
74371;SDS011;62885;51.374;6.170;2023-06-26T14:20:04;2.90;;;0.98;;
74371;SDS011;62885;51.374;6.170;2023-06-26T14:22:31;2.67;;;1.00;;
74371;SDS011;62885;51.374;6.170;2023-06-26T14:24:58;5.40;;;1.40;;
74371;SDS011;62885;51.374;6.170;2023-06-26T14:27:23;2.33;;;0.90;;
74371;SDS011;62885;51.374;6.170;2023-06-26T14:29:52;2.90;;;1.00;;
74371;SDS011;62885;51.374;6.170;2023-06-26T14:32:18;5.57;;;1.40;;
74371;SDS011;62885;51.374;6.170;2023-06-26T14:34:44;2.08;;;0.70;;
74371;SDS011;62885;51.374;6.170;2023-06-26T14:37:09;6.00;;;1.30;;
74371;SDS011;62885;51.374;6.170;2023-06-26T14:39:35;3.15;;;1.10;;
74371;SDS011;62885;51.374;6.170;2023-06-26T14:42:03;5.30;;;0.98;;
74371;SDS011;62885;51.374;6.170;2023-06-26T14:44:30;3.35;;;1.00;;
74371;SDS011;62885;51.374;6.170;2023-06-26T14:46:56;5.38;;;1.00;;
74371;SDS011;62885;51.374;6.170;2023-06-26T14:49:21;2.65;;;0.90;;
74371;SDS011;62885;51.374;6.170;2023-06-26T14:51:47;2.33;;;0.80;;
74371;SDS011;62885;51.374;6.170;2023-06-26T14:54:13;5.70;;;1.25;;
74371;SDS011;62885;51.374;6.170;2023-06-26T14:56:38;3.95;;;0.95;;
74371;SDS011;62885;51.374;6.170;2023-06-26T14:59:04;4.28;;;1.17;;